createdAt,value
2022-12-25T00:00:20.397Z,98687.24
2022-12-25T00:03:35.804Z,98684.13
2022-12-25T00:06:23.689Z,98682.10
2022-12-25T00:09:18.783Z,98686.14
2022-12-25T00:12:13.867Z,98692.33
2022-12-25T00:15:08.893Z,98704.62
2022-12-25T00:18:03.676Z,98710.48
2022-12-25T00:20:58.665Z,98713.04
2022-12-25T00:23:47.265Z,98716.85
2022-12-25T00:26:30.657Z,98719.78
2022-12-25T00:29:26.693Z,98718.77
2022-12-25T00:32:21.684Z,98723.25
2022-12-25T00:35:17.688Z,98725.91
2022-12-25T00:38:06.088Z,98725.38
2022-12-25T00:40:53.692Z,98727.19
2022-12-25T00:43:36.677Z,98732.46
2022-12-25T00:46:31.673Z,98738.20
2022-12-25T00:49:20.677Z,98743.15
2022-12-25T00:51:56.754Z,98744.82
2022-12-25T00:54:44.683Z,98746.27
2022-12-25T00:57:20.208Z,98746.47
2022-12-25T01:00:07.703Z,98751.23
2022-12-25T01:03:02.969Z,98753.63
2022-12-25T01:05:51.647Z,98762.65
2022-12-25T01:08:25.811Z,98763.66
2022-12-25T01:11:15.669Z,98772.91
2022-12-25T01:13:50.996Z,98778.17
2022-12-25T01:16:40.714Z,98777.48
2022-12-25T01:19:16.011Z,98775.29
2022-12-25T01:22:03.669Z,98784.29
2022-12-25T01:24:38.846Z,98787.36
2022-12-25T01:27:26.670Z,98793.27
2022-12-25T01:30:08.666Z,98789.36
2022-12-25T01:32:50.129Z,98790.75
2022-12-25T01:35:38.649Z,98791.16
2022-12-25T01:38:27.437Z,98796.14
2022-12-25T01:41:17.649Z,98797.75
2022-12-25T01:44:09.806Z,98805.60
2022-12-25T01:47:04.677Z,98811.51
2022-12-25T01:50:01.710Z,98814.36
2022-12-25T01:52:56.654Z,98814.49
2022-12-25T01:55:51.654Z,98813.48
2022-12-25T01:58:39.639Z,98808.08
2022-12-25T02:01:14.921Z,98808.68
2022-12-25T02:04:09.652Z,98808.77
2022-12-25T02:06:43.805Z,98814.00
2022-12-25T02:09:31.670Z,98817.70
2022-12-25T02:12:13.835Z,98817.94
2022-12-25T02:15:14.849Z,98816.98
2022-12-25T02:18:15.746Z,98817.16
2022-12-25T02:20:50.963Z,98814.66
2022-12-25T02:24:16.636Z,98815.50
2022-12-25T02:27:21.653Z,98817.66
2022-12-25T02:30:22.635Z,98821.14
2022-12-25T02:33:50.646Z,98830.42
2022-12-25T02:36:47.639Z,98839.73
2022-12-25T02:40:05.864Z,98841.23
2022-12-25T02:43:16.854Z,98841.61
2022-12-25T02:46:13.298Z,98847.91
2022-12-25T02:49:30.648Z,98854.64
2022-12-25T02:52:31.277Z,98859.24
2022-12-25T02:55:40.652Z,98856.02
2022-12-25T02:58:40.326Z,98850.02
2022-12-25T03:01:48.795Z,98851.23
2022-12-25T03:04:44.264Z,98858.45
2022-12-25T03:07:33.655Z,98865.80
2022-12-25T03:10:31.311Z,98865.29
2022-12-25T03:13:26.660Z,98865.46
2022-12-25T03:16:39.686Z,98864.40
2022-12-25T03:19:55.837Z,98859.11
2022-12-25T03:23:09.832Z,98851.85
2022-12-25T03:26:23.744Z,98852.11
2022-12-25T03:29:38.716Z,98853.58
2022-12-25T03:32:43.654Z,98859.23
2022-12-25T03:35:50.626Z,98865.05
2022-12-25T03:38:57.649Z,98859.42
2022-12-25T03:42:12.632Z,98855.41
2022-12-25T03:45:31.672Z,98858.54
2022-12-25T03:48:19.635Z,98861.74
2022-12-25T03:51:20.294Z,98861.61
2022-12-25T03:54:31.642Z,98858.09
2022-12-25T03:57:25.271Z,98856.98
2022-12-25T04:00:39.622Z,98862.91
2022-12-25T04:03:46.749Z,98858.57
2022-12-25T04:06:46.626Z,98864.33
2022-12-25T04:10:16.643Z,98873.49
2022-12-25T04:13:23.825Z,98881.41
2022-12-25T04:16:24.734Z,98885.91
2022-12-25T04:19:37.649Z,98892.83
2022-12-25T04:22:50.654Z,98888.41
2022-12-25T04:26:03.631Z,98887.04
2022-12-25T04:29:16.652Z,98887.79
2022-12-25T04:32:29.639Z,98887.22
2022-12-25T04:35:43.842Z,98894.27
2022-12-25T04:38:38.835Z,98899.88
2022-12-25T04:41:26.633Z,98900.90
2022-12-25T04:44:22.631Z,98901.42
2022-12-25T04:47:17.612Z,98901.29
2022-12-25T04:50:05.632Z,98908.27
2022-12-25T04:52:44.761Z,98909.36
2022-12-25T04:55:32.655Z,98908.08
2022-12-25T04:58:07.747Z,98910.58
2022-12-25T05:00:55.624Z,98917.90
2022-12-25T05:03:36.767Z,98920.20
2022-12-25T05:06:31.826Z,98924.27
2022-12-25T05:09:26.668Z,98923.33
2022-12-25T05:12:25.625Z,98922.86
2022-12-25T05:15:13.627Z,98926.78
2022-12-25T05:17:48.760Z,98929.10
2022-12-25T05:20:43.641Z,98921.90
2022-12-25T05:23:38.621Z,98923.00
2022-12-25T05:26:30.616Z,98921.20
2022-12-25T05:29:05.771Z,98916.48
2022-12-25T05:31:53.620Z,98919.27
2022-12-25T05:34:28.764Z,98926.23
2022-12-25T05:37:16.620Z,98930.56
2022-12-25T05:39:58.824Z,98931.67
2022-12-25T05:42:53.613Z,98935.58
2022-12-25T05:45:48.610Z,98938.19
2022-12-25T05:48:43.613Z,98939.80
2022-12-25T05:51:32.617Z,98943.49
2022-12-25T05:54:07.780Z,98946.40
2022-12-25T05:56:55.623Z,98948.59
2022-12-25T05:59:30.773Z,98953.77
2022-12-25T06:02:18.711Z,98964.83
2022-12-25T06:04:53.764Z,98965.05
2022-12-25T06:07:41.628Z,98966.06
2022-12-25T06:10:16.753Z,98969.17
2022-12-25T06:13:04.630Z,98965.09
2022-12-25T06:15:59.829Z,98967.89
2022-12-25T06:18:52.805Z,98969.54
2022-12-25T06:21:27.741Z,98975.36
2022-12-25T06:24:21.022Z,98979.98
2022-12-25T06:26:57.753Z,98981.37
2022-12-25T06:29:45.613Z,98980.77
2022-12-25T06:32:19.762Z,98982.30
2022-12-25T06:35:07.619Z,98988.38
2022-12-25T06:38:03.592Z,98994.99
2022-12-25T06:40:51.625Z,99004.41
2022-12-25T06:43:46.611Z,99003.34
2022-12-25T06:46:36.820Z,99003.67
2022-12-25T06:49:11.793Z,99002.98
2022-12-25T06:51:59.616Z,99007.21
2022-12-25T06:54:35.783Z,99012.85
2022-12-25T06:57:23.699Z,99017.63
2022-12-25T06:59:58.770Z,99031.29
2022-12-25T07:02:49.716Z,99037.42
2022-12-25T07:05:24.980Z,99043.39
2022-12-25T07:08:12.796Z,99050.67
2022-12-25T07:10:55.799Z,99056.52
2022-12-25T07:13:50.643Z,99058.75
2022-12-25T07:16:45.665Z,99066.98
2022-12-25T07:19:44.939Z,99069.27
2022-12-25T07:22:42.806Z,99074.20
2022-12-25T07:25:37.807Z,99075.15
2022-12-25T07:28:25.598Z,99074.77
2022-12-25T07:31:07.821Z,99087.48
2022-12-25T07:34:02.799Z,99089.91
2022-12-25T07:36:50.607Z,99093.08
2022-12-25T07:39:25.827Z,99094.80
2022-12-25T07:42:13.605Z,99095.14
2022-12-25T07:45:08.592Z,99098.24
2022-12-25T07:48:01.288Z,99107.56
2022-12-25T07:50:39.741Z,99112.70
2022-12-25T07:53:27.618Z,99114.73
2022-12-25T07:56:08.767Z,99122.98
2022-12-25T07:58:56.590Z,99128.56
2022-12-25T08:01:39.768Z,99130.17
2022-12-25T08:04:34.796Z,99138.38
2022-12-25T08:07:22.940Z,99139.55
2022-12-25T08:09:57.761Z,99141.20
2022-12-25T08:12:45.599Z,99139.88
2022-12-25T08:15:20.720Z,99142.90
2022-12-25T08:18:08.600Z,99138.58
2022-12-25T08:20:43.743Z,99135.65
2022-12-25T08:23:31.595Z,99139.65
2022-12-25T08:26:09.754Z,99140.88
2022-12-25T08:29:04.578Z,99142.93
2022-12-25T08:31:59.823Z,99152.09
2022-12-25T08:34:54.580Z,99153.98
2022-12-25T08:37:49.587Z,99150.73
2022-12-25T08:40:37.805Z,99146.77
2022-12-25T08:43:12.726Z,99141.71
2022-12-25T08:46:07.695Z,99149.17
2022-12-25T08:48:56.875Z,99147.34
2022-12-25T08:51:33.102Z,99145.40
2022-12-25T08:54:27.805Z,99146.45
2022-12-25T08:57:22.784Z,99145.23
2022-12-25T09:00:18.598Z,99146.71
2022-12-25T09:03:13.609Z,99139.67
2022-12-25T09:06:08.592Z,99136.63
2022-12-25T09:09:03.678Z,99133.67
2022-12-25T09:11:58.593Z,99136.56
2022-12-25T09:14:53.570Z,99141.76
2022-12-25T09:17:41.614Z,99147.63
2022-12-25T09:20:36.581Z,99158.66
2022-12-25T09:23:31.606Z,99161.84
2022-12-25T09:26:28.577Z,99166.07
2022-12-25T09:29:16.603Z,99173.77
2022-12-25T09:31:51.846Z,99179.77
2022-12-25T09:34:46.790Z,99176.60
2022-12-25T09:37:35.603Z,99179.29
2022-12-25T09:40:10.699Z,99188.59
2022-12-25T09:43:09.547Z,99184.06
2022-12-25T09:45:57.631Z,99182.77
2022-12-25T09:48:41.573Z,99186.74
2022-12-25T09:51:37.586Z,99189.36
2022-12-25T09:54:29.617Z,99195.41
2022-12-25T09:57:04.752Z,99199.05
2022-12-25T09:59:54.586Z,99200.89
2022-12-25T10:03:21.899Z,99204.48
2022-12-25T10:06:12.723Z,99204.75
2022-12-25T10:09:59.906Z,99204.80
2022-12-25T10:13:00.770Z,99209.45
2022-12-25T10:16:03.386Z,99209.42
2022-12-25T10:19:04.636Z,99214.45
2022-12-25T10:22:00.609Z,99214.91
2022-12-25T10:25:06.567Z,99217.89
2022-12-25T10:28:07.584Z,99219.10
2022-12-25T10:30:56.659Z,99216.82
2022-12-25T10:33:31.776Z,99218.98
2022-12-25T10:36:20.633Z,99226.11
2022-12-25T10:39:15.633Z,99219.70
2022-12-25T10:42:29.588Z,99212.38
2022-12-25T10:45:24.592Z,99214.57
2022-12-25T10:48:19.606Z,99213.23
2022-12-25T10:51:21.575Z,99210.00
2022-12-25T10:54:18.600Z,99206.77
2022-12-25T10:57:15.576Z,99200.67
2022-12-25T11:00:10.606Z,99190.98
2022-12-25T11:02:59.014Z,99184.48
2022-12-25T11:05:34.743Z,99182.86
2022-12-25T11:08:29.149Z,99180.61
2022-12-25T11:11:10.692Z,99175.52
2022-12-25T11:14:01.606Z,99168.73
2022-12-25T11:16:56.571Z,99163.65
2022-12-25T11:19:44.571Z,99158.43
2022-12-25T11:22:24.707Z,99154.18
2022-12-25T11:25:19.537Z,99154.49
2022-12-25T11:28:03.795Z,99154.55
2022-12-25T11:30:52.603Z,99150.98
2022-12-25T11:33:28.769Z,99139.31
2022-12-25T11:36:39.555Z,99134.55
2022-12-25T11:39:41.090Z,99136.88
2022-12-25T11:42:39.525Z,99129.36
2022-12-25T11:45:49.579Z,99123.97
2022-12-25T11:49:04.562Z,99123.34
2022-12-25T11:52:01.792Z,99127.58
2022-12-25T11:55:11.762Z,99129.77
2022-12-25T11:58:09.536Z,99130.44
2022-12-25T12:01:07.563Z,99130.36
2022-12-25T12:04:02.593Z,99139.92
2022-12-25T12:07:12.576Z,99138.91
2022-12-25T12:10:16.567Z,99140.48
2022-12-25T12:13:13.652Z,99137.89
2022-12-25T12:15:57.880Z,99135.79
2022-12-25T12:18:50.301Z,99138.65
2022-12-25T12:21:36.946Z,99135.57
2022-12-25T12:24:27.582Z,99132.50
2022-12-25T12:27:26.571Z,99137.77
2022-12-25T12:30:42.587Z,99142.16
2022-12-25T12:33:35.601Z,99141.86
2022-12-25T12:36:14.265Z,99144.32
2022-12-25T12:39:07.223Z,99141.73
2022-12-25T12:41:53.831Z,99142.80
2022-12-25T12:44:43.669Z,99141.14
2022-12-25T12:48:02.006Z,99142.67
2022-12-25T12:50:56.572Z,99140.99
2022-12-25T12:53:56.874Z,99139.36
2022-12-25T12:56:51.651Z,99139.01
2022-12-25T12:59:55.572Z,99143.61
2022-12-25T13:02:59.079Z,99146.54
2022-12-25T13:06:45.157Z,99146.30
2022-12-25T13:09:55.602Z,99142.61
2022-12-25T13:13:01.691Z,99139.33
2022-12-25T13:15:59.586Z,99139.39
2022-12-25T13:18:56.665Z,99138.39
2022-12-25T13:21:53.552Z,99141.78
2022-12-25T13:24:50.581Z,99145.20
2022-12-25T13:27:48.671Z,99148.10
2022-12-25T13:30:44.573Z,99150.44
2022-12-25T13:33:39.903Z,99156.56
2022-12-25T13:36:34.600Z,99156.03
2022-12-25T13:39:31.833Z,99159.35
2022-12-25T13:42:23.708Z,99162.52
2022-12-25T13:45:36.585Z,99156.14
2022-12-25T13:48:33.075Z,99155.04
2022-12-25T13:51:29.611Z,99145.13
2022-12-25T13:54:22.349Z,99145.12
2022-12-25T13:57:05.579Z,99143.98
2022-12-25T14:00:00.513Z,99147.25
2022-12-25T14:02:55.873Z,99145.50
2022-12-25T14:05:51.547Z,99144.11
2022-12-25T14:08:47.783Z,99145.86
2022-12-25T14:11:46.667Z,99147.02
2022-12-25T14:14:42.569Z,99145.28
2022-12-25T14:17:37.652Z,99143.46
2022-12-25T14:20:42.672Z,99136.17
2022-12-25T14:23:37.556Z,99138.13
2022-12-25T14:26:38.544Z,99139.52
2022-12-25T14:29:35.580Z,99133.94
2022-12-25T14:32:26.546Z,99131.91
2022-12-25T14:35:04.647Z,99134.23
2022-12-25T14:37:53.650Z,99137.89
2022-12-25T14:40:36.697Z,99134.25
2022-12-25T14:43:32.557Z,99126.63
2022-12-25T14:46:09.670Z,99136.27
2022-12-25T14:49:12.552Z,99141.52
2022-12-25T14:51:47.698Z,99147.19
2022-12-25T14:54:35.636Z,99153.10
2022-12-25T14:57:12.998Z,99149.42
2022-12-25T15:00:04.615Z,99147.02
2022-12-25T15:02:48.335Z,99141.39
2022-12-25T15:05:42.736Z,99139.43
2022-12-25T15:08:18.165Z,99144.13
2022-12-25T15:11:07.557Z,99139.99
2022-12-25T15:14:02.564Z,99136.68
2022-12-25T15:17:08.523Z,99126.40
2022-12-25T15:20:03.737Z,99121.88
2022-12-25T15:26:13.562Z,99129.23
2022-12-25T15:29:08.838Z,99141.89
2022-12-25T15:31:56.668Z,99151.29
2022-12-25T15:34:38.543Z,99161.90
2022-12-25T15:37:33.522Z,99166.91
2022-12-25T15:40:30.830Z,99164.80
2022-12-25T15:43:42.889Z,99169.86
2022-12-25T15:46:37.653Z,99162.42
2022-12-25T15:49:32.536Z,99154.13
2022-12-25T15:52:28.544Z,99160.37
2022-12-25T15:55:16.567Z,99164.01
2022-12-25T15:57:55.245Z,99165.17
2022-12-25T16:00:43.529Z,99172.20
2022-12-25T16:03:19.906Z,99179.89
2022-12-25T16:06:07.642Z,99185.94
2022-12-25T16:08:56.192Z,99178.66
2022-12-25T16:11:45.554Z,99174.20
2022-12-25T16:14:22.014Z,99171.21
2022-12-25T16:17:11.245Z,99168.33
2022-12-25T16:19:46.803Z,99164.39
2022-12-25T16:22:35.554Z,99155.88
2022-12-25T16:25:10.884Z,99146.73
2022-12-25T16:27:58.733Z,99145.08
2022-12-25T16:30:33.848Z,99145.07
2022-12-25T16:33:22.500Z,99143.23
2022-12-25T16:36:04.533Z,99144.81
2022-12-25T16:39:01.718Z,99144.88
2022-12-25T16:41:58.776Z,99137.33
2022-12-25T16:44:53.537Z,99127.98
2022-12-25T16:47:48.539Z,99125.21
2022-12-25T16:50:43.537Z,99119.50
2022-12-25T16:53:39.570Z,99112.73
2022-12-25T16:56:36.536Z,99099.83
2022-12-25T16:59:33.536Z,99104.67
2022-12-25T17:02:31.056Z,99108.36
2022-12-25T17:05:19.535Z,99107.29
2022-12-25T17:07:55.064Z,99108.61
2022-12-25T17:10:45.532Z,99110.12
2022-12-25T17:13:20.675Z,99107.40
2022-12-25T17:16:26.573Z,99108.17
2022-12-25T17:19:25.003Z,99097.60
2022-12-25T17:22:14.828Z,99096.52
2022-12-25T17:24:52.023Z,99095.16
2022-12-25T17:27:39.992Z,99098.38
2022-12-25T17:30:17.661Z,99093.32
2022-12-25T17:33:05.532Z,99087.11
2022-12-25T17:35:57.338Z,99085.08
2022-12-25T17:38:37.393Z,99078.82
2022-12-25T17:41:27.540Z,99077.53
2022-12-25T17:44:22.534Z,99075.85
2022-12-25T17:47:20.621Z,99074.23
2022-12-25T17:50:15.706Z,99077.55
2022-12-25T17:53:03.493Z,99086.95
2022-12-25T17:55:41.376Z,99086.25
2022-12-25T17:58:30.092Z,99085.11
2022-12-25T18:01:29.571Z,99078.41
2022-12-25T18:04:24.606Z,99069.05
2022-12-25T18:07:20.467Z,99061.29
2022-12-25T18:10:15.578Z,99064.41
2022-12-25T18:13:10.512Z,99077.10
2022-12-25T18:16:05.567Z,99074.45
2022-12-25T18:19:00.510Z,99062.31
2022-12-25T18:21:55.525Z,99050.08
2022-12-25T18:24:51.724Z,99054.35
2022-12-25T18:27:46.512Z,99061.34
2022-12-25T18:30:42.518Z,99062.48
2022-12-25T18:33:37.722Z,99060.38
2022-12-25T18:36:37.520Z,99052.02
2022-12-25T18:39:32.450Z,99042.59
2022-12-25T18:42:39.600Z,99046.14
2022-12-25T18:45:24.508Z,99048.41
2022-12-25T18:48:19.516Z,99057.96
2022-12-25T18:51:20.505Z,99064.23
2022-12-25T18:54:15.591Z,99067.32
2022-12-25T18:57:07.313Z,99067.81
2022-12-25T18:59:49.687Z,99070.41
2022-12-25T19:02:37.694Z,99062.67
2022-12-25T19:05:19.794Z,99057.55
2022-12-25T19:08:20.818Z,99055.13
2022-12-25T19:11:23.506Z,99065.76
2022-12-25T19:14:11.519Z,99068.39
2022-12-25T19:17:06.591Z,99064.91
2022-12-25T19:19:54.487Z,99061.02
2022-12-25T19:22:42.533Z,99060.64
2022-12-25T19:25:31.510Z,99057.64
2022-12-25T19:28:19.540Z,99052.20
2022-12-25T19:31:02.546Z,99051.69
2022-12-25T19:33:57.523Z,99042.79
2022-12-25T19:36:52.496Z,99037.88
2022-12-25T19:39:53.497Z,99032.73
2022-12-25T19:42:49.381Z,99033.96
2022-12-25T19:45:46.534Z,99041.64
2022-12-25T19:48:41.505Z,99043.39
2022-12-25T19:51:34.477Z,99039.44
2022-12-25T19:54:10.629Z,99033.38
2022-12-25T19:56:58.503Z,99024.87
2022-12-25T19:59:53.504Z,99021.95
2022-12-25T20:02:41.642Z,99018.23
2022-12-25T20:05:16.918Z,99016.77
2022-12-25T20:08:05.145Z,99016.79
2022-12-25T20:10:39.615Z,99009.54
2022-12-25T20:13:27.509Z,99002.02
2022-12-25T20:16:10.610Z,98998.23
2022-12-25T20:19:00.681Z,98995.66
2022-12-25T20:21:35.638Z,98987.33
2022-12-25T20:24:23.692Z,98981.10
2022-12-25T20:26:59.715Z,98971.25
2022-12-25T20:29:49.069Z,98966.28
2022-12-25T20:32:24.319Z,98967.48
2022-12-25T20:35:15.151Z,98974.02
2022-12-25T20:38:04.473Z,98976.63
2022-12-25T20:41:24.660Z,98978.52
2022-12-25T20:44:03.479Z,98977.77
2022-12-25T20:46:58.503Z,98986.95
2022-12-25T20:49:48.950Z,98987.44
2022-12-25T20:52:24.644Z,98984.20
2022-12-25T20:55:14.163Z,98980.10
2022-12-25T20:58:04.321Z,98980.20
2022-12-25T21:01:01.446Z,98984.41
2022-12-25T21:03:57.684Z,98967.30
2022-12-25T21:06:53.786Z,98965.05
2022-12-25T21:09:53.876Z,98964.22
2022-12-25T21:12:48.483Z,98963.29
2022-12-25T21:15:43.483Z,98957.88
2022-12-25T21:18:44.429Z,98946.87
2022-12-25T21:21:39.482Z,98939.16
2022-12-25T21:24:39.024Z,98922.52
2022-12-25T21:27:33.483Z,98910.98
2022-12-25T21:30:32.520Z,98906.40
2022-12-25T21:33:48.491Z,98906.38
2022-12-25T21:36:48.598Z,98914.34
2022-12-25T21:39:36.586Z,98920.27
2022-12-25T21:42:11.695Z,98920.14
2022-12-25T21:44:59.470Z,98915.22
2022-12-25T21:48:01.564Z,98915.35
2022-12-25T21:51:01.036Z,98915.93
2022-12-25T21:53:42.492Z,98914.36
2022-12-25T21:56:43.565Z,98920.21
2022-12-25T21:59:32.490Z,98916.83
2022-12-25T22:02:27.637Z,98907.80
2022-12-25T22:05:42.473Z,98897.64
2022-12-25T22:08:37.464Z,98888.86
2022-12-25T22:12:07.482Z,98881.72
2022-12-25T22:15:04.476Z,98884.21
2022-12-25T22:18:10.516Z,98889.06
2022-12-25T22:20:45.660Z,98893.08
2022-12-25T22:23:33.690Z,98887.73
2022-12-25T22:26:15.844Z,98879.85
2022-12-25T22:29:06.652Z,98874.45
2022-12-25T22:31:46.611Z,98868.45
2022-12-25T22:34:35.487Z,98864.31
2022-12-25T22:37:12.599Z,98864.22
2022-12-25T22:40:00.463Z,98854.36
2022-12-25T22:42:42.456Z,98858.57
2022-12-25T22:45:37.475Z,98860.75
2022-12-25T22:48:25.456Z,98856.15
2022-12-25T22:51:20.460Z,98849.00
2022-12-25T22:54:08.454Z,98844.42
2022-12-25T22:56:49.516Z,98841.27
2022-12-25T22:59:44.503Z,98830.04
2022-12-25T23:02:32.787Z,98824.90
2022-12-25T23:05:08.586Z,98824.98
2022-12-25T23:07:56.477Z,98821.06
2022-12-25T23:10:32.593Z,98811.98
2022-12-25T23:13:39.450Z,98808.74
2022-12-25T23:16:27.529Z,98791.86
2022-12-25T23:19:45.454Z,98799.89
2022-12-25T23:22:58.522Z,98816.05
2022-12-25T23:26:05.456Z,98819.95
2022-12-25T23:29:18.469Z,98809.23
2022-12-25T23:32:06.474Z,98803.92
2022-12-25T23:34:49.498Z,98799.98
2022-12-25T23:37:44.504Z,98801.80
2022-12-25T23:40:39.443Z,98808.54
2022-12-25T23:43:34.461Z,98813.23
2022-12-25T23:46:29.531Z,98805.89
2022-12-25T23:49:17.522Z,98796.56
2022-12-25T23:51:53.602Z,98789.81
2022-12-25T23:54:41.683Z,98779.73
2022-12-25T23:57:16.601Z,98781.23
